South Weymouth, Massachusetts
Current Conditions -  °F | °C
As of 2:42 AM on Thursday 23 Oct 2014 (Local Time) from KOWD Reporting Station
Heavy Rain Heavy Rain  
Wind Chill: 11°   Ceiling: 2000
Heat Index: 11°   Visibility: 2.5mi
Dew Point:   Wind: 10mph
Humidity: 92%   Direction: 10°N
Pressure: 29.73"   Gusts: 23mph
Location:  42.1666°N, 70.9521°W
Report Text: KOWD 230642Z AUTO 01009G20KT 2 1/2SM +RA BR SCT014 OVC020 11/09 A2973 RMK AO2 P0030 T01060094
Loading
Personal Weather Stations






























Interactive Weather Map
Tropical Storm Tracking
New forecast layout! Learn more

10-Day Weather Forecast

Advertisements
Track Severe Weather on mobile